createdAt,value
2018-09-14T00:02:01.365Z,16.13
2018-09-14T00:04:30.053Z,15.73
2018-09-14T00:06:58.185Z,15.37
2018-09-14T00:09:26.351Z,14.70
2018-09-14T00:11:54.472Z,12.60
2018-09-14T00:14:22.620Z,13.20
2018-09-14T00:16:50.732Z,14.43
2018-09-14T00:19:19.040Z,13.77
2018-09-14T00:21:47.157Z,15.30
2018-09-14T00:24:15.609Z,13.30
2018-09-14T00:26:43.724Z,14.20
2018-09-14T00:29:11.865Z,15.00
2018-09-14T00:31:40.241Z,13.93
2018-09-14T00:34:08.936Z,14.17
2018-09-14T00:36:37.049Z,14.10
2018-09-14T00:39:07.573Z,13.37
2018-09-14T00:41:36.228Z,12.50
2018-09-14T00:44:04.388Z,14.40
2018-09-14T00:46:32.511Z,14.80
2018-09-14T00:49:00.643Z,13.40
2018-09-14T00:51:28.991Z,12.93
2018-09-14T00:53:57.152Z,12.70
2018-09-14T00:56:25.248Z,13.97
2018-09-14T00:58:53.415Z,15.13
2018-09-14T01:01:21.868Z,15.97
2018-09-14T01:03:50.000Z,16.10
2018-09-14T01:06:18.451Z,17.10
2018-09-14T01:08:46.719Z,15.67
2018-09-14T01:11:15.429Z,15.33
2018-09-14T01:13:43.672Z,17.70
2018-09-14T01:16:12.111Z,17.47
2018-09-14T01:18:40.240Z,16.60
2018-09-14T01:21:08.567Z,16.57
2018-09-14T01:23:36.891Z,15.60
2018-09-14T01:26:05.196Z,14.57
2018-09-14T01:28:33.320Z,14.57
2018-09-14T01:31:01.764Z,14.07
2018-09-14T01:33:30.068Z,13.60
2018-09-14T01:36:03.517Z,14.23
2018-09-14T01:38:31.660Z,13.70
2018-09-14T01:40:59.771Z,13.60
2018-09-14T01:43:28.173Z,15.07
2018-09-14T01:45:56.329Z,14.80
2018-09-14T01:48:24.454Z,13.73
2018-09-14T01:50:52.773Z,15.73
2018-09-14T01:53:21.224Z,14.57
2018-09-14T01:55:49.320Z,14.47
2018-09-14T01:58:17.488Z,13.80
2018-09-14T02:00:45.601Z,14.83
2018-09-14T02:03:13.772Z,14.40
2018-09-14T02:05:42.485Z,13.80
2018-09-14T02:08:11.215Z,12.80
2018-09-14T02:10:39.552Z,14.07
2018-09-14T02:13:07.870Z,11.70
2018-09-14T02:15:36.596Z,12.03
2018-09-14T02:18:05.040Z,12.87
2018-09-14T02:20:33.160Z,13.43
2018-09-14T02:23:01.605Z,12.37
2018-09-14T02:25:30.762Z,13.93
2018-09-14T02:27:59.052Z,13.17
2018-09-14T02:30:27.186Z,12.97
2018-09-14T02:32:55.785Z,15.40
2018-09-14T02:35:23.926Z,13.60
2018-09-14T02:37:52.259Z,13.30
2018-09-14T02:40:20.392Z,13.23
2018-09-14T02:42:48.513Z,12.90
2018-09-14T02:45:16.634Z,12.40
2018-09-14T02:47:45.292Z,12.60
2018-09-14T02:50:13.413Z,13.93
2018-09-14T02:52:41.532Z,12.27
2018-09-14T02:55:09.652Z,12.40
2018-09-14T02:57:37.771Z,12.60
2018-09-14T03:00:06.420Z,11.60
2018-09-14T03:02:34.667Z,10.77
2018-09-14T03:05:02.942Z,12.20
2018-09-14T03:07:31.268Z,11.47
2018-09-14T03:09:59.463Z,11.43
2018-09-14T03:12:27.707Z,11.13
2018-09-14T03:14:56.200Z,12.30
2018-09-14T03:17:24.344Z,12.43
2018-09-14T03:19:52.523Z,13.13
2018-09-14T03:22:20.884Z,11.70
2018-09-14T03:24:49.556Z,11.53
2018-09-14T03:27:18.040Z,11.80
2018-09-14T03:29:46.184Z,12.33
2018-09-14T03:32:14.474Z,11.37
2018-09-14T03:34:42.960Z,10.93
2018-09-14T03:37:11.188Z,11.50
2018-09-14T03:39:39.287Z,12.10
2018-09-14T03:42:07.411Z,11.90
2018-09-14T03:44:35.788Z,10.83
2018-09-14T03:47:04.152Z,11.50
2018-09-14T03:49:32.288Z,11.90
2018-09-14T03:52:00.811Z,10.57
2018-09-14T03:54:28.924Z,11.17
2018-09-14T03:56:57.317Z,12.40
2018-09-14T03:59:25.458Z,11.90
2018-09-14T04:01:53.804Z,12.70
2018-09-14T04:04:21.916Z,13.20
2018-09-14T04:06:50.083Z,13.33
2018-09-14T04:09:18.224Z,13.60
2018-09-14T04:11:46.568Z,12.50
2018-09-14T04:14:14.688Z,13.10
2018-09-14T04:16:42.807Z,11.03
2018-09-14T04:19:11.245Z,12.20
2018-09-14T04:21:39.609Z,12.43
2018-09-14T04:24:08.084Z,11.13
2018-09-14T04:26:36.539Z,10.70
2018-09-14T04:29:05.001Z,12.40
2018-09-14T04:31:33.300Z,11.73
2018-09-14T04:34:01.904Z,12.60
2018-09-14T04:36:30.356Z,12.30
2018-09-14T04:38:58.473Z,13.30
2018-09-14T04:41:26.916Z,11.63
2018-09-14T04:43:55.704Z,13.33
2018-09-14T04:46:24.159Z,12.10
2018-09-14T04:48:52.283Z,10.93
2018-09-14T04:51:20.896Z,10.80
2018-09-14T04:53:49.525Z,10.97
2018-09-14T04:56:17.648Z,12.23
2018-09-14T04:58:45.757Z,11.13
2018-09-14T05:01:14.206Z,11.40
2018-09-14T05:03:42.689Z,9.90
2018-09-14T05:06:10.787Z,11.13
2018-09-14T05:08:40.564Z,11.77
2018-09-14T05:11:08.848Z,11.03
2018-09-14T05:13:37.329Z,11.93
2018-09-14T05:16:05.620Z,12.77
2018-09-14T05:18:33.783Z,12.43
2018-09-14T05:21:02.452Z,13.00
2018-09-14T05:23:30.562Z,12.47
2018-09-14T05:25:58.873Z,13.80
2018-09-14T05:28:27.115Z,14.90
2018-09-14T05:30:55.260Z,12.50
2018-09-14T05:33:23.411Z,12.80
2018-09-14T05:35:52.052Z,12.87
2018-09-14T05:38:20.210Z,11.73
2018-09-14T05:40:49.298Z,13.07
2018-09-14T05:43:17.416Z,12.73
2018-09-14T05:45:45.596Z,10.93
2018-09-14T05:48:13.919Z,10.90
2018-09-14T05:50:42.036Z,10.90
2018-09-14T05:53:10.508Z,10.30
2018-09-14T05:55:38.950Z,10.63
2018-09-14T05:58:07.653Z,11.00
2018-09-14T06:00:36.100Z,10.00
2018-09-14T06:03:04.552Z,10.33
2018-09-14T06:05:32.664Z,10.97
2018-09-14T06:08:00.795Z,9.93
2018-09-14T06:10:29.281Z,10.30
2018-09-14T06:12:57.924Z,9.97
2018-09-14T06:15:26.364Z,10.60
2018-09-14T06:17:54.502Z,10.80
2018-09-14T06:20:22.608Z,11.27
2018-09-14T06:22:51.116Z,11.53
2018-09-14T06:25:19.729Z,11.17
2018-09-14T06:27:48.099Z,10.37
2018-09-14T06:30:16.479Z,11.60
2018-09-14T06:32:45.089Z,11.03
2018-09-14T06:35:13.740Z,11.57
2018-09-14T06:37:42.217Z,12.80
2018-09-14T06:40:10.669Z,11.73
2018-09-14T06:42:38.800Z,11.53
2018-09-14T06:45:07.282Z,12.60
2018-09-14T06:47:35.625Z,13.37
2018-09-14T06:50:04.008Z,13.70
2018-09-14T06:52:32.205Z,13.73
2018-09-14T06:55:00.351Z,14.40
2018-09-14T06:57:28.486Z,15.70
2018-09-14T06:59:57.196Z,16.40
2018-09-14T07:02:25.586Z,16.20
2018-09-14T07:04:54.240Z,16.00
2018-09-14T07:07:22.585Z,15.63
2018-09-14T07:09:50.773Z,17.13
2018-09-14T07:12:18.910Z,15.83
2018-09-14T07:14:47.045Z,15.93
2018-09-14T07:17:15.752Z,17.60
2018-09-14T07:19:44.256Z,15.83
2018-09-14T07:22:12.773Z,15.67
2018-09-14T07:24:41.158Z,15.37
2018-09-14T07:27:10.010Z,15.40
2018-09-14T07:29:38.186Z,15.13
2018-09-14T07:32:06.537Z,17.43
2018-09-14T07:34:34.909Z,15.73
2018-09-14T07:37:03.405Z,16.60
2018-09-14T07:39:31.543Z,16.50
2018-09-14T07:41:59.984Z,17.90
2018-09-14T07:44:28.109Z,17.30
2018-09-14T07:46:56.593Z,17.97
2018-09-14T07:49:24.751Z,18.20
2018-09-14T07:51:53.064Z,18.13
2018-09-14T07:54:21.184Z,17.13
2018-09-14T07:56:49.347Z,17.67
2018-09-14T07:59:18.005Z,18.00
2018-09-14T08:01:46.116Z,15.53
2018-09-14T08:04:14.274Z,17.80
2018-09-14T08:06:42.396Z,17.53
2018-09-14T08:09:12.274Z,17.83
2018-09-14T08:11:41.165Z,18.53
2018-09-14T08:14:10.109Z,16.67
2018-09-14T08:16:38.541Z,19.17
2018-09-14T08:19:07.028Z,19.43
2018-09-14T08:21:35.467Z,15.73
2018-09-14T08:24:03.744Z,14.83
2018-09-14T08:26:31.872Z,15.63
2018-09-14T08:29:00.324Z,15.40
2018-09-14T08:31:28.691Z,16.83
2018-09-14T08:33:57.363Z,17.23
2018-09-14T08:36:25.480Z,16.87
2018-09-14T08:38:53.935Z,17.80
2018-09-14T08:41:22.248Z,17.93
2018-09-14T08:43:50.704Z,16.83
2018-09-14T08:46:18.820Z,16.80
2018-09-14T08:48:47.301Z,17.47
2018-09-14T08:51:15.956Z,18.03
2018-09-14T08:53:44.458Z,17.17
2018-09-14T08:56:12.623Z,17.70
2018-09-14T08:58:41.266Z,17.50
2018-09-14T09:01:09.972Z,18.70
2018-09-14T09:03:38.084Z,20.27
2018-09-14T09:06:06.746Z,19.07
2018-09-14T09:08:35.302Z,20.80
2018-09-14T09:11:03.972Z,20.30
2018-09-14T09:13:32.080Z,20.33
2018-09-14T09:16:00.204Z,21.60
2018-09-14T09:18:28.768Z,21.97
2018-09-14T09:20:57.226Z,22.70
2018-09-14T09:23:25.359Z,22.87
2018-09-14T09:25:53.672Z,22.80
2018-09-14T09:28:21.827Z,21.83
2018-09-14T09:30:50.485Z,22.80
2018-09-14T09:33:18.844Z,21.80
2018-09-14T09:35:47.004Z,19.23
2018-09-14T09:38:15.108Z,18.23
2018-09-14T09:40:43.612Z,17.63
2018-09-14T09:43:12.336Z,16.70
2018-09-14T09:45:40.636Z,15.27
2018-09-14T09:48:10.288Z,14.73
2018-09-14T09:50:39.430Z,13.20
2018-09-14T09:53:08.483Z,13.10
2018-09-14T09:55:37.248Z,13.07
2018-09-14T09:58:05.481Z,11.27
2018-09-14T10:00:38.919Z,10.30
2018-09-14T10:03:12.428Z,10.57
2018-09-14T10:05:46.296Z,9.80
2018-09-14T10:08:14.737Z,10.50
2018-09-14T10:10:43.208Z,9.83
2018-09-14T10:13:11.304Z,6.40
2018-09-14T10:15:39.765Z,5.70
2018-09-14T10:18:08.084Z,8.60
2018-09-14T10:20:36.209Z,7.43
2018-09-14T10:23:04.872Z,6.43
2018-09-14T10:25:33.153Z,4.63
2018-09-14T10:28:01.588Z,6.50
2018-09-14T10:30:29.701Z,8.30
2018-09-14T10:32:57.812Z,9.37
2018-09-14T10:35:26.268Z,10.50
2018-09-14T10:37:54.724Z,10.47
2018-09-14T10:40:23.410Z,10.97
2018-09-14T10:42:52.335Z,10.53
2018-09-14T10:45:21.125Z,10.33
2018-09-14T10:47:49.364Z,11.03
2018-09-14T10:50:17.476Z,10.13
2018-09-14T10:52:46.139Z,11.30
2018-09-14T10:55:14.489Z,10.90
2018-09-14T10:57:42.765Z,9.70
2018-09-14T11:00:11.448Z,10.30
2018-09-14T11:02:39.573Z,11.93
2018-09-14T11:05:08.411Z,11.70
2018-09-14T11:07:36.911Z,10.60
2018-09-14T11:10:05.753Z,10.70
2018-09-14T11:12:34.803Z,7.73
2018-09-14T11:15:04.259Z,7.40
2018-09-14T11:17:32.728Z,9.97
2018-09-14T11:20:00.837Z,10.27
2018-09-14T11:22:28.993Z,10.33
2018-09-14T11:24:57.161Z,11.10
2018-09-14T11:27:26.008Z,11.23
2018-09-14T11:29:54.432Z,11.57
2018-09-14T11:32:22.581Z,9.73
2018-09-14T11:34:50.863Z,9.30
2018-09-14T11:37:19.005Z,9.10
2018-09-14T11:39:47.300Z,11.90
2018-09-14T11:42:15.761Z,10.73
2018-09-14T11:44:44.203Z,11.27
2018-09-14T11:47:12.657Z,11.63
2018-09-14T11:49:40.964Z,12.60
2018-09-14T11:52:09.104Z,13.40
2018-09-14T11:54:37.634Z,12.20
2018-09-14T11:57:06.396Z,12.20
2018-09-14T11:59:35.084Z,11.40
2018-09-14T12:02:03.244Z,10.60
2018-09-14T12:04:31.377Z,9.70
2018-09-14T12:07:00.036Z,9.00
2018-09-14T12:09:28.147Z,9.53
2018-09-14T12:11:56.909Z,11.20
2018-09-14T12:14:25.368Z,10.47
2018-09-14T12:16:53.863Z,13.53
2018-09-14T12:19:21.972Z,11.93
2018-09-14T12:21:50.436Z,12.97
2018-09-14T12:24:18.880Z,13.10
2018-09-14T12:26:47.007Z,11.90
2018-09-14T12:29:15.316Z,12.60
2018-09-14T12:31:43.464Z,12.10
2018-09-14T12:34:11.580Z,13.40
2018-09-14T12:36:40.224Z,14.43
2018-09-14T12:39:09.495Z,10.87
2018-09-14T12:41:37.841Z,14.00
2018-09-14T12:44:06.220Z,13.53
2018-09-14T12:46:34.352Z,13.47
2018-09-14T12:49:03.635Z,13.70
2018-09-14T12:51:32.090Z,14.40
2018-09-14T12:54:00.214Z,15.10
2018-09-14T12:56:28.856Z,14.07
2018-09-14T12:58:56.989Z,14.03
2018-09-14T13:01:25.104Z,11.70
2018-09-14T13:03:53.231Z,12.20
2018-09-14T13:06:21.564Z,12.40
2018-09-14T13:08:50.216Z,10.20
2018-09-14T13:11:18.963Z,10.93
2018-09-14T13:13:47.417Z,10.87
2018-09-14T13:16:15.532Z,9.10
2018-09-14T13:18:44.840Z,10.70
2018-09-14T13:21:13.841Z,10.90
2018-09-14T13:23:41.956Z,9.83
2018-09-14T13:26:10.078Z,9.43
2018-09-14T13:28:38.222Z,8.43
2018-09-14T13:31:07.133Z,7.70
2018-09-14T13:33:35.240Z,8.33
2018-09-14T13:36:04.053Z,9.07
2018-09-14T13:38:32.199Z,8.63
2018-09-14T13:41:00.317Z,8.33
2018-09-14T13:43:28.964Z,6.73
2018-09-14T13:45:57.081Z,7.57
2018-09-14T13:48:25.540Z,6.20
2018-09-14T13:50:53.644Z,6.60
2018-09-14T13:53:21.756Z,6.13
2018-09-14T13:55:49.898Z,5.80
2018-09-14T13:58:18.204Z,6.37
2018-09-14T14:00:46.836Z,6.17
2018-09-14T14:03:14.976Z,6.90
2018-09-14T14:05:43.419Z,6.33
2018-09-14T14:08:11.782Z,6.47
2018-09-14T14:10:39.920Z,5.93
2018-09-14T14:13:08.088Z,6.40
2018-09-14T14:15:36.257Z,5.80
2018-09-14T14:18:04.364Z,5.70
2018-09-14T14:20:32.985Z,6.53
2018-09-14T14:23:01.258Z,7.10
2018-09-14T14:25:29.904Z,7.70
2018-09-14T14:27:58.368Z,9.07
2018-09-14T14:30:26.537Z,9.10
2018-09-14T14:32:54.632Z,7.97
2018-09-14T14:35:27.945Z,8.80
2018-09-14T14:37:56.052Z,9.60
2018-09-14T14:40:24.179Z,8.90
2018-09-14T14:42:52.313Z,8.67
2018-09-14T14:45:20.655Z,8.30
2018-09-14T14:47:48.940Z,9.03
2018-09-14T14:50:17.118Z,8.60
2018-09-14T14:52:45.227Z,7.80
2018-09-14T14:55:14.096Z,10.40
2018-09-14T14:57:42.328Z,10.43
2018-09-14T15:00:10.956Z,10.73
2018-09-14T15:02:40.552Z,10.10
2018-09-14T15:05:10.585Z,10.63
2018-09-14T15:07:38.768Z,10.90
2018-09-14T15:10:07.287Z,11.23
2018-09-14T15:12:35.749Z,9.43
2018-09-14T15:15:03.884Z,9.30
2018-09-14T15:17:32.019Z,9.63
2018-09-14T15:20:00.711Z,8.60
2018-09-14T15:22:29.496Z,9.73
2018-09-14T15:24:58.071Z,9.20
2018-09-14T15:27:26.197Z,8.87
2018-09-14T15:29:54.344Z,10.00
2018-09-14T15:32:22.490Z,10.30
2018-09-14T15:37:48.308Z,10.23
2018-09-14T15:40:16.784Z,10.33
2018-09-14T15:42:45.264Z,10.90
2018-09-14T15:45:13.546Z,10.90
2018-09-14T15:47:41.741Z,11.77
2018-09-14T15:50:10.409Z,11.43
2018-09-14T15:52:38.864Z,10.83
2018-09-14T15:55:07.004Z,11.10
2018-09-14T15:57:35.150Z,9.67
2018-09-14T16:00:03.772Z,9.80
2018-09-14T16:02:31.897Z,9.57
2018-09-14T16:05:00.339Z,9.37
2018-09-14T16:07:44.669Z,10.63
2018-09-14T16:10:13.671Z,10.83
2018-09-14T16:12:41.775Z,13.17
2018-09-14T16:15:10.220Z,15.43
2018-09-14T16:17:38.856Z,14.50
2018-09-14T16:20:07.085Z,14.60
2018-09-14T16:22:40.477Z,14.50
2018-09-14T16:25:08.664Z,13.93
2018-09-14T16:27:36.792Z,14.97
2018-09-14T16:30:05.355Z,13.63
2018-09-14T16:32:33.488Z,14.77
2018-09-14T16:35:01.665Z,12.10
2018-09-14T16:37:30.117Z,13.20
2018-09-14T16:39:58.253Z,12.80
2018-09-14T16:42:26.425Z,12.20
2018-09-14T16:44:54.546Z,13.50
2018-09-14T16:47:23.022Z,13.20
2018-09-14T16:49:51.681Z,13.60
2018-09-14T16:52:20.124Z,13.90
2018-09-14T16:54:48.576Z,15.10
2018-09-14T16:57:17.255Z,15.40
2018-09-14T16:59:45.356Z,18.00
2018-09-14T17:02:13.476Z,16.63
2018-09-14T17:04:41.585Z,15.97
2018-09-14T17:07:10.040Z,16.00
2018-09-14T17:09:38.180Z,15.37
2018-09-14T17:12:06.944Z,15.73
2018-09-14T17:14:35.384Z,15.63
2018-09-14T17:17:03.900Z,15.60
2018-09-14T17:19:32.275Z,17.60
2018-09-14T17:22:00.589Z,16.70
2018-09-14T17:24:28.693Z,16.80
2018-09-14T17:26:56.796Z,15.37
2018-09-14T17:29:24.898Z,16.53
2018-09-14T17:31:53.023Z,14.80
2018-09-14T17:34:21.320Z,16.97
2018-09-14T17:36:49.919Z,16.70
2018-09-14T17:39:18.406Z,16.87
2018-09-14T17:41:47.028Z,17.03
2018-09-14T17:44:15.140Z,16.33
2018-09-14T17:46:43.248Z,17.43
2018-09-14T17:49:11.680Z,18.00
2018-09-14T17:51:40.348Z,17.33
2018-09-14T17:54:08.451Z,16.33
2018-09-14T17:56:36.613Z,17.23
2018-09-14T17:59:04.977Z,16.53
2018-09-14T18:01:33.608Z,16.93
2018-09-14T18:04:02.059Z,17.90
2018-09-14T18:06:30.941Z,16.97
2018-09-14T18:09:00.372Z,17.70
2018-09-14T18:11:29.044Z,18.13
2018-09-14T18:13:57.153Z,17.27
2018-09-14T18:16:25.538Z,17.73
2018-09-14T18:18:53.848Z,18.53
2018-09-14T18:21:22.312Z,18.57
2018-09-14T18:23:50.420Z,19.30
2018-09-14T18:26:18.852Z,18.87
2018-09-14T18:28:46.977Z,18.77
2018-09-14T18:31:15.429Z,18.03
2018-09-14T18:33:43.548Z,19.10
2018-09-14T18:36:12.242Z,18.90
2018-09-14T18:38:40.836Z,18.17
2018-09-14T18:41:09.271Z,17.17
2018-09-14T18:43:37.391Z,19.77
2018-09-14T18:46:05.837Z,18.30
2018-09-14T18:48:34.297Z,19.27
2018-09-14T18:51:02.731Z,18.30
2018-09-14T18:53:31.400Z,18.23
2018-09-14T18:56:00.043Z,18.37
2018-09-14T18:58:28.181Z,19.00
2018-09-14T19:00:56.809Z,18.93
2018-09-14T19:03:24.900Z,18.20
2018-09-14T19:05:52.996Z,18.80
2018-09-14T19:08:21.432Z,18.40
2018-09-14T19:10:50.014Z,18.37
2018-09-14T19:13:18.530Z,21.10
2018-09-14T19:15:47.132Z,21.93
2018-09-14T19:18:15.588Z,21.77
2018-09-14T19:20:44.228Z,22.80
2018-09-14T19:23:12.668Z,21.90
2018-09-14T19:25:40.808Z,22.70
2018-09-14T19:28:09.403Z,21.73
2018-09-14T19:30:37.519Z,21.60
2018-09-14T19:33:05.970Z,20.20
2018-09-14T19:35:34.605Z,19.97
2018-09-14T19:38:03.972Z,19.85
2018-09-14T19:40:32.125Z,18.27
2018-09-14T19:43:00.756Z,18.95
2018-09-14T19:45:29.198Z,16.93
2018-09-14T19:47:57.824Z,15.53
2018-09-14T19:50:26.499Z,15.43
2018-09-14T19:52:56.741Z,15.65
2018-09-14T19:55:25.444Z,15.37
2018-09-14T19:57:53.553Z,16.00
2018-09-14T20:00:21.992Z,16.73
2018-09-14T20:02:50.163Z,17.80
2018-09-14T20:05:18.605Z,16.70
2018-09-14T20:07:47.209Z,17.83
2018-09-14T20:10:15.742Z,16.67
2018-09-14T20:12:43.840Z,15.83
2018-09-14T20:15:12.239Z,15.58
2018-09-14T20:17:40.721Z,15.13
2018-09-14T20:20:09.349Z,15.90
2018-09-14T20:22:37.779Z,15.67
2018-09-14T20:25:06.785Z,15.35
2018-09-14T20:27:35.528Z,16.25
2018-09-14T20:30:04.853Z,15.95
2018-09-14T20:32:33.200Z,14.67
2018-09-14T20:35:01.444Z,15.50
2018-09-14T20:37:29.567Z,15.07
2018-09-14T20:39:57.976Z,13.77
2018-09-14T20:42:26.640Z,15.40
2018-09-14T20:44:56.700Z,14.50
2018-09-14T20:47:25.176Z,14.23
2018-09-14T20:49:53.676Z,14.80
2018-09-14T20:52:22.129Z,14.30
2018-09-14T20:54:50.660Z,12.50
2018-09-14T20:57:19.088Z,14.27
2018-09-14T20:59:47.248Z,14.30
2018-09-14T21:02:15.703Z,13.70
2018-09-14T21:04:43.811Z,13.97
2018-09-14T21:07:12.457Z,13.75
2018-09-14T21:09:40.899Z,15.20
2018-09-14T21:12:09.356Z,14.83
2018-09-14T21:14:37.804Z,14.23
2018-09-14T21:17:06.567Z,14.30
2018-09-14T21:19:34.671Z,15.53
2018-09-14T21:22:03.784Z,13.63
2018-09-14T21:24:31.879Z,13.57
2018-09-14T21:27:00.283Z,13.07
2018-09-14T21:29:28.724Z,13.70
2018-09-14T21:31:56.839Z,12.70
2018-09-14T21:34:25.860Z,13.07
2018-09-14T21:36:54.320Z,13.90
2018-09-14T21:39:22.746Z,13.57
2018-09-14T21:41:50.871Z,12.37
2018-09-14T21:44:19.595Z,12.43
2018-09-14T21:46:47.726Z,12.10
2018-09-14T21:49:15.823Z,11.50
2018-09-14T21:51:44.415Z,9.27
2018-09-14T21:54:13.183Z,11.20
2018-09-14T21:56:41.727Z,11.90
2018-09-14T21:59:10.168Z,11.70
2018-09-14T22:01:38.448Z,12.80
2018-09-14T22:04:06.816Z,11.28
2018-09-14T22:06:35.292Z,11.20
2018-09-14T22:09:04.861Z,12.83
2018-09-14T22:11:33.067Z,12.53
2018-09-14T22:14:01.456Z,11.67
2018-09-14T22:16:29.573Z,12.63
2018-09-14T22:18:58.315Z,12.33
2018-09-14T22:21:26.957Z,11.70
2018-09-14T22:23:56.657Z,12.30
2018-09-14T22:26:25.088Z,11.07
2018-09-14T22:28:53.476Z,11.90
2018-09-14T22:31:21.900Z,9.93
2018-09-14T22:33:50.574Z,10.97
2018-09-14T22:36:19.036Z,10.93
2018-09-14T22:38:47.156Z,11.77
2018-09-14T22:41:15.928Z,10.13
2018-09-14T22:43:44.274Z,12.10
2018-09-14T22:46:13.148Z,12.73
2018-09-14T22:48:41.532Z,11.45
2018-09-14T22:51:09.945Z,11.87
2018-09-14T22:53:38.296Z,13.40
2018-09-14T22:56:07.047Z,12.07
2018-09-14T22:58:35.508Z,12.83
2018-09-14T23:01:09.344Z,13.80
2018-09-14T23:03:38.068Z,14.13
2018-09-14T23:06:06.283Z,12.40
2018-09-14T23:08:34.992Z,12.13
2018-09-14T23:11:03.488Z,13.87
2018-09-14T23:13:31.795Z,12.40
2018-09-14T23:16:01.172Z,11.80
2018-09-14T23:18:30.463Z,11.15
2018-09-14T23:21:00.210Z,10.30
2018-09-14T23:23:28.900Z,9.40
2018-09-14T23:25:59.005Z,9.90
2018-09-14T23:28:27.496Z,12.00
2018-09-14T23:30:57.051Z,8.85
2018-09-14T23:33:25.617Z,9.65
2018-09-14T23:35:53.913Z,9.70
2018-09-14T23:38:22.008Z,9.50
2018-09-14T23:40:50.448Z,10.10
2018-09-14T23:43:19.001Z,10.60
2018-09-14T23:45:47.991Z,8.87
2018-09-14T23:48:16.416Z,8.70
2018-09-14T23:50:44.787Z,9.60
2018-09-14T23:53:13.010Z,9.70
2018-09-14T23:55:41.964Z,8.18
2018-09-14T23:58:10.324Z,7.80
